createdAt,value
2022-08-02T00:00:12.098Z,3.10
2022-08-02T00:02:38.830Z,3.30
2022-08-02T00:05:06.417Z,3.60
2022-08-02T00:07:37.595Z,3.57
2022-08-02T00:10:08.808Z,3.40
2022-08-02T00:12:35.577Z,3.03
2022-08-02T00:15:02.198Z,3.50
2022-08-02T00:17:28.835Z,3.40
2022-08-02T00:19:55.419Z,3.20
2022-08-02T00:22:22.014Z,3.77
2022-08-02T00:24:48.608Z,3.40
2022-08-02T00:27:15.214Z,3.80
2022-08-02T00:29:50.368Z,3.57
2022-08-02T00:32:20.400Z,3.07
2022-08-02T00:34:47.007Z,3.70
2022-08-02T00:37:13.774Z,3.23
2022-08-02T00:39:40.602Z,3.63
2022-08-02T00:42:07.605Z,3.17
2022-08-02T00:44:34.560Z,3.40
2022-08-02T00:47:01.287Z,3.50
2022-08-02T00:49:28.074Z,3.20
2022-08-02T00:51:54.706Z,3.47
2022-08-02T00:54:21.441Z,3.17
2022-08-02T00:56:50.140Z,3.33
2022-08-02T00:59:18.566Z,3.00
2022-08-02T01:01:56.576Z,3.40
2022-08-02T01:04:29.793Z,3.30
2022-08-02T01:06:59.584Z,3.63
2022-08-02T01:09:26.621Z,3.40
2022-08-02T01:11:53.229Z,3.17
2022-08-02T01:14:20.343Z,3.10
2022-08-02T01:16:56.707Z,3.43
2022-08-02T01:19:51.571Z,3.37
2022-08-02T01:23:02.747Z,3.40
2022-08-02T01:25:54.761Z,3.47
2022-08-02T01:28:38.735Z,3.60
2022-08-02T01:31:34.404Z,3.40
2022-08-02T01:34:18.185Z,3.57
2022-08-02T01:36:49.701Z,3.90
2022-08-02T01:39:26.969Z,3.43
2022-08-02T01:42:01.007Z,3.47
2022-08-02T01:44:31.712Z,3.50
2022-08-02T01:47:01.988Z,3.60
2022-08-02T01:49:30.620Z,3.57
2022-08-02T01:52:18.291Z,3.57
2022-08-02T01:54:47.386Z,3.60
2022-08-02T01:57:15.893Z,3.77
2022-08-02T01:59:45.406Z,3.67
2022-08-02T02:02:14.772Z,3.70
2022-08-02T02:04:43.832Z,3.80
2022-08-02T02:07:13.378Z,3.70
2022-08-02T02:09:50.588Z,4.10
2022-08-02T02:12:19.297Z,3.70
2022-08-02T02:14:51.383Z,3.67
2022-08-02T02:18:10.445Z,3.47
2022-08-02T02:20:09.791Z,3.97
2022-08-02T02:22:36.568Z,3.73
2022-08-02T02:25:04.276Z,3.97
2022-08-02T02:27:35.165Z,3.50
2022-08-02T02:30:05.735Z,3.50
2022-08-02T02:32:34.695Z,3.50
2022-08-02T02:35:04.054Z,3.60
2022-08-02T02:37:32.075Z,3.57
2022-08-02T02:39:59.650Z,3.67
2022-08-02T02:42:32.361Z,3.80
2022-08-02T02:45:00.075Z,4.03
2022-08-02T02:47:41.368Z,4.00
2022-08-02T02:50:09.664Z,3.70
2022-08-02T02:52:38.222Z,3.60
2022-08-02T02:55:06.418Z,3.90
2022-08-02T02:57:33.659Z,3.60
2022-08-02T03:00:00.813Z,3.73
2022-08-02T03:02:28.337Z,3.83
2022-08-02T03:04:58.166Z,4.20
2022-08-02T03:07:26.404Z,4.17
2022-08-02T03:09:54.172Z,4.00
2022-08-02T03:12:31.567Z,3.87
2022-08-02T03:15:01.813Z,3.43
2022-08-02T03:17:57.919Z,4.10
2022-08-02T03:20:24.518Z,4.27
2022-08-02T03:22:51.263Z,4.17
2022-08-02T03:25:19.041Z,3.80
2022-08-02T03:27:46.349Z,4.40
2022-08-02T03:30:14.213Z,4.23
2022-08-02T03:32:44.683Z,4.50
2022-08-02T03:35:14.005Z,4.40
2022-08-02T03:37:41.420Z,4.13
2022-08-02T03:40:10.798Z,4.00
2022-08-02T03:42:40.053Z,4.73
2022-08-02T03:45:09.167Z,4.27
2022-08-02T03:47:38.013Z,4.73
2022-08-02T03:50:05.864Z,5.90
2022-08-02T03:52:33.458Z,4.70
2022-08-02T03:55:00.433Z,4.83
2022-08-02T03:57:27.541Z,4.47
2022-08-02T03:59:54.120Z,5.50
2022-08-02T04:02:20.743Z,4.40
2022-08-02T04:04:47.307Z,4.37
2022-08-02T04:07:13.926Z,4.53
2022-08-02T04:09:40.518Z,4.97
2022-08-02T04:12:07.269Z,5.00
2022-08-02T04:14:36.765Z,4.40
2022-08-02T04:17:09.573Z,4.33
2022-08-02T04:19:36.179Z,4.90
2022-08-02T04:22:07.110Z,5.10
2022-08-02T04:24:41.441Z,4.83
2022-08-02T04:27:49.070Z,5.57
2022-08-02T04:29:58.387Z,5.33
2022-08-02T04:32:25.286Z,5.03
2022-08-02T04:35:18.070Z,4.87
2022-08-02T04:37:39.217Z,4.47
2022-08-02T04:40:25.825Z,4.57
2022-08-02T04:42:53.879Z,5.00
2022-08-02T04:45:21.806Z,5.37
2022-08-02T04:48:01.817Z,4.87
2022-08-02T04:50:30.334Z,4.73
2022-08-02T04:52:56.932Z,5.00
2022-08-02T04:55:28.176Z,5.33
2022-08-02T04:57:55.322Z,4.60
2022-08-02T05:00:22.357Z,4.70
2022-08-02T05:02:49.465Z,4.90
2022-08-02T05:05:16.647Z,4.87
2022-08-02T05:07:43.234Z,4.67
2022-08-02T05:10:10.234Z,4.40
2022-08-02T05:12:40.201Z,4.27
2022-08-02T05:15:11.462Z,4.87
2022-08-02T05:17:39.766Z,4.40
2022-08-02T05:20:15.796Z,4.57
2022-08-02T05:22:42.405Z,4.63
2022-08-02T05:25:09.701Z,4.67
2022-08-02T05:27:36.317Z,4.57
2022-08-02T05:30:04.582Z,4.50
2022-08-02T05:32:31.274Z,4.40
2022-08-02T05:34:59.744Z,4.53
2022-08-02T05:37:26.519Z,4.77
2022-08-02T05:39:58.670Z,4.63
2022-08-02T05:42:25.319Z,4.60
2022-08-02T05:44:51.960Z,4.40
2022-08-02T05:47:18.585Z,4.73
2022-08-02T05:49:45.310Z,4.20
2022-08-02T05:52:17.963Z,4.50
2022-08-02T05:55:13.035Z,4.40
2022-08-02T05:58:00.871Z,4.20
2022-08-02T06:00:31.098Z,4.40
2022-08-02T06:03:34.726Z,3.85
2022-08-02T06:06:17.598Z,3.97
2022-08-02T06:08:51.242Z,4.18
2022-08-02T06:11:22.334Z,4.20
2022-08-02T06:13:50.070Z,4.40
2022-08-02T06:16:18.018Z,4.80
2022-08-02T06:19:00.087Z,4.47
2022-08-02T06:22:33.422Z,4.88
2022-08-02T06:24:17.530Z,4.70
2022-08-02T06:26:44.923Z,4.90
2022-08-02T06:29:13.162Z,4.82
2022-08-02T06:31:42.120Z,4.75
2022-08-02T06:34:11.859Z,4.93
2022-08-02T06:36:46.058Z,5.32
2022-08-02T06:39:31.328Z,5.13
2022-08-02T06:42:02.458Z,4.82
2022-08-02T06:44:48.743Z,5.20
2022-08-02T06:47:16.343Z,4.43
2022-08-02T06:49:51.574Z,5.03
2022-08-02T06:52:26.892Z,4.70
2022-08-02T06:54:56.766Z,4.88
2022-08-02T06:57:23.429Z,4.60
2022-08-02T06:59:49.980Z,4.90
2022-08-02T07:02:16.616Z,3.92
2022-08-02T07:04:43.238Z,4.90
2022-08-02T07:07:09.874Z,4.78
2022-08-02T07:09:36.571Z,4.55
2022-08-02T07:12:03.937Z,4.75
2022-08-02T07:14:30.638Z,4.70
2022-08-02T07:16:58.849Z,4.30
2022-08-02T07:19:37.338Z,3.83
2022-08-02T07:22:04.935Z,2.97
2022-08-02T07:24:31.533Z,3.85
2022-08-02T07:27:11.185Z,3.40
2022-08-02T07:29:46.089Z,3.22
2022-08-02T07:32:15.680Z,3.40
2022-08-02T07:34:42.867Z,2.83
2022-08-02T07:37:35.304Z,3.38
2022-08-02T07:40:07.569Z,3.50
2022-08-02T07:42:39.015Z,3.17
2022-08-02T07:45:06.088Z,3.03
2022-08-02T07:47:32.812Z,3.00
2022-08-02T07:49:59.364Z,3.00
2022-08-02T07:52:26.038Z,2.80
2022-08-02T07:54:52.621Z,3.13
2022-08-02T07:57:20.921Z,3.10
2022-08-02T07:59:48.066Z,3.40
2022-08-02T08:02:14.911Z,3.30
2022-08-02T08:04:41.538Z,2.80
2022-08-02T08:07:10.617Z,2.05
2022-08-02T08:09:42.012Z,2.33
2022-08-02T08:12:10.081Z,2.60
2022-08-02T08:14:37.551Z,2.53
2022-08-02T08:17:08.308Z,2.80
2022-08-02T08:19:51.598Z,2.80
2022-08-02T08:22:19.403Z,2.67
2022-08-02T08:24:46.323Z,3.00
2022-08-02T08:27:15.290Z,2.65
2022-08-02T08:29:42.847Z,2.83
2022-08-02T08:32:14.074Z,2.60
2022-08-02T08:34:41.100Z,2.38
2022-08-02T08:37:07.762Z,2.20
2022-08-02T08:39:34.346Z,2.40
2022-08-02T08:42:20.951Z,3.13
2022-08-02T08:44:47.639Z,2.17
2022-08-02T08:47:14.431Z,2.30
2022-08-02T08:49:52.394Z,2.28
2022-08-02T08:52:23.002Z,2.38
2022-08-02T08:54:50.412Z,2.10
2022-08-02T08:57:19.181Z,2.08
2022-08-02T08:59:46.289Z,2.72
2022-08-02T09:02:19.634Z,1.98
2022-08-02T09:04:54.467Z,2.08
2022-08-02T09:07:22.748Z,2.25
2022-08-02T09:09:49.483Z,2.42
2022-08-02T09:12:17.647Z,2.00
2022-08-02T09:14:46.443Z,1.98
2022-08-02T09:17:17.578Z,1.90
2022-08-02T09:19:45.758Z,2.17
2022-08-02T09:22:15.111Z,2.15
2022-08-02T09:24:45.492Z,1.60
2022-08-02T09:27:17.711Z,1.70
2022-08-02T09:30:13.197Z,2.00
2022-08-02T09:32:46.411Z,1.60
2022-08-02T09:35:15.091Z,1.77
2022-08-02T09:37:42.795Z,1.98
2022-08-02T09:40:12.025Z,2.10
2022-08-02T09:42:58.105Z,1.85
2022-08-02T09:45:31.566Z,1.70
2022-08-02T09:47:58.302Z,1.70
2022-08-02T09:50:24.908Z,1.92
2022-08-02T09:52:51.574Z,1.83
2022-08-02T09:55:18.226Z,1.80
2022-08-02T09:57:50.949Z,1.77
2022-08-02T10:00:31.621Z,1.50
2022-08-02T10:03:11.119Z,1.50
2022-08-02T10:05:55.664Z,1.73
2022-08-02T10:08:23.236Z,1.58
2022-08-02T10:11:00.182Z,1.60
2022-08-02T10:13:36.517Z,2.00
2022-08-02T10:16:04.624Z,1.50
2022-08-02T10:18:40.294Z,1.90
2022-08-02T10:21:12.642Z,1.48
2022-08-02T10:23:40.686Z,1.80
2022-08-02T10:26:08.379Z,1.70
2022-08-02T10:28:36.038Z,1.92
2022-08-02T10:31:05.678Z,1.60
2022-08-02T10:33:36.273Z,1.60
2022-08-02T10:36:07.476Z,1.83
2022-08-02T10:38:35.304Z,1.40
2022-08-02T10:41:01.949Z,1.40
2022-08-02T10:43:31.315Z,1.50
2022-08-02T10:46:33.377Z,1.63
2022-08-02T10:49:37.971Z,1.60
2022-08-02T10:52:02.852Z,1.50
2022-08-02T10:54:35.374Z,1.63
2022-08-02T10:57:02.547Z,1.30
2022-08-02T10:59:35.296Z,1.70
2022-08-02T11:02:05.730Z,1.50
2022-08-02T11:04:33.566Z,1.40
2022-08-02T11:07:17.157Z,1.55
2022-08-02T11:09:47.950Z,1.58
2022-08-02T11:12:20.361Z,1.50
2022-08-02T11:15:04.098Z,1.60
2022-08-02T11:17:54.515Z,1.80
2022-08-02T11:20:25.330Z,2.20
2022-08-02T11:22:54.392Z,1.50
2022-08-02T11:25:24.030Z,1.60
2022-08-02T11:27:52.671Z,1.58
2022-08-02T11:30:26.448Z,1.50
2022-08-02T11:33:00.941Z,1.60
2022-08-02T11:35:59.897Z,1.70
2022-08-02T11:38:26.493Z,1.77
2022-08-02T11:40:57.341Z,1.50
2022-08-02T11:43:27.331Z,1.52
2022-08-02T11:45:55.333Z,1.33
2022-08-02T11:48:41.654Z,1.50
2022-08-02T11:51:18.544Z,1.55
2022-08-02T11:53:46.412Z,1.60
2022-08-02T11:56:21.645Z,1.65
2022-08-02T11:59:08.357Z,1.50
2022-08-02T12:01:46.203Z,1.52
2022-08-02T12:04:17.803Z,1.60
2022-08-02T12:06:44.879Z,1.35
2022-08-02T12:09:18.763Z,1.63
2022-08-02T12:11:51.218Z,1.70
2022-08-02T12:14:18.196Z,1.67
2022-08-02T12:17:03.642Z,1.80
2022-08-02T12:19:31.239Z,1.60
2022-08-02T12:22:18.935Z,1.52
2022-08-02T12:24:51.318Z,1.50
2022-08-02T12:27:35.244Z,1.25
2022-08-02T12:30:14.377Z,1.73
2022-08-02T12:32:41.666Z,1.52
2022-08-02T12:35:26.261Z,1.50
2022-08-02T12:37:53.714Z,1.40
2022-08-02T12:40:31.567Z,1.50
2022-08-02T12:43:00.455Z,1.40
2022-08-02T12:45:40.797Z,1.70
2022-08-02T12:48:09.131Z,1.75
2022-08-02T12:50:39.178Z,1.55
2022-08-02T12:53:16.826Z,1.55
2022-08-02T12:56:02.270Z,1.75
2022-08-02T12:58:45.928Z,1.65
2022-08-02T13:01:12.571Z,1.63
2022-08-02T13:04:11.803Z,1.63
2022-08-02T13:06:43.133Z,1.80
2022-08-02T13:09:16.208Z,1.42
2022-08-02T13:11:44.059Z,1.48
2022-08-02T13:14:12.014Z,1.50
2022-08-02T13:16:38.816Z,1.50
2022-08-02T13:19:05.394Z,1.55
2022-08-02T13:21:41.238Z,1.70
2022-08-02T13:24:38.084Z,1.63
2022-08-02T13:27:08.135Z,1.55
2022-08-02T13:29:36.335Z,1.63
2022-08-02T13:32:03.055Z,1.75
2022-08-02T13:34:29.718Z,1.63
2022-08-02T13:36:56.348Z,1.65
2022-08-02T13:39:22.941Z,1.73
2022-08-02T13:41:49.844Z,1.83
2022-08-02T13:44:16.645Z,1.50
2022-08-02T13:46:45.390Z,1.90
2022-08-02T13:49:19.592Z,1.58
2022-08-02T13:51:48.226Z,1.50
2022-08-02T13:54:15.914Z,1.60
2022-08-02T13:56:42.691Z,1.70
2022-08-02T13:59:54.303Z,1.60
2022-08-02T14:01:57.280Z,1.77
2022-08-02T14:04:24.637Z,1.70
2022-08-02T14:06:51.527Z,1.58
2022-08-02T14:09:18.442Z,1.60
2022-08-02T14:11:46.200Z,1.58
2022-08-02T14:14:15.905Z,1.55
2022-08-02T14:16:44.352Z,1.65
2022-08-02T14:19:16.510Z,1.60
2022-08-02T14:21:46.601Z,1.50
2022-08-02T14:24:14.153Z,1.50
2022-08-02T14:26:40.801Z,1.52
2022-08-02T14:29:07.393Z,1.40
2022-08-02T14:31:33.997Z,1.45
2022-08-02T14:34:00.793Z,1.50
2022-08-02T14:36:28.178Z,1.60
2022-08-02T14:38:55.718Z,1.48
2022-08-02T14:41:22.806Z,1.50
2022-08-02T14:44:04.427Z,1.60
2022-08-02T14:46:32.558Z,1.40
2022-08-02T14:49:02.105Z,1.50
2022-08-02T14:51:30.351Z,1.50
2022-08-02T14:54:03.132Z,1.60
2022-08-02T14:56:30.196Z,1.50
2022-08-02T14:58:56.935Z,1.70
2022-08-02T15:01:26.100Z,1.40
2022-08-02T15:03:53.521Z,1.77
2022-08-02T15:06:20.205Z,1.50
2022-08-02T15:08:46.787Z,1.60
2022-08-02T15:11:13.418Z,1.42
2022-08-02T15:13:42.765Z,1.40
2022-08-02T15:16:09.502Z,1.70
2022-08-02T15:18:36.434Z,1.70
2022-08-02T15:21:07.995Z,1.52
2022-08-02T15:23:50.067Z,1.33
2022-08-02T15:26:16.656Z,1.50
2022-08-02T15:28:43.226Z,1.77
2022-08-02T15:31:09.882Z,1.60
2022-08-02T15:33:36.467Z,1.50
2022-08-02T15:36:03.306Z,1.52
2022-08-02T15:38:29.961Z,1.42
2022-08-02T15:40:56.595Z,1.40
2022-08-02T15:43:23.302Z,1.70
2022-08-02T15:45:50.033Z,1.33
2022-08-02T15:48:17.443Z,1.70
2022-08-02T15:50:44.300Z,1.50
2022-08-02T15:53:10.942Z,2.33
2022-08-02T15:55:40.031Z,1.70
2022-08-02T15:58:22.352Z,1.48
2022-08-02T16:00:49.615Z,1.83
2022-08-02T16:03:16.259Z,1.80
2022-08-02T16:05:44.335Z,1.90
2022-08-02T16:08:11.016Z,1.70
2022-08-02T16:10:37.951Z,1.70
2022-08-02T16:13:23.043Z,1.80
2022-08-02T16:15:49.630Z,1.60
2022-08-02T16:18:16.247Z,1.60
2022-08-02T16:20:42.845Z,1.70
2022-08-02T16:23:09.427Z,1.70
2022-08-02T16:25:41.872Z,1.50
2022-08-02T16:28:08.700Z,2.28
2022-08-02T16:30:35.583Z,1.73
2022-08-02T16:33:02.463Z,1.90
2022-08-02T16:35:29.151Z,1.80
2022-08-02T16:37:55.798Z,1.63
2022-08-02T16:40:22.546Z,1.83
2022-08-02T16:42:50.747Z,1.90
2022-08-02T16:45:20.798Z,1.80
2022-08-02T16:47:56.227Z,1.60
2022-08-02T16:50:28.088Z,1.60
2022-08-02T16:52:57.234Z,1.63
2022-08-02T16:55:24.811Z,1.70
2022-08-02T16:57:51.437Z,1.88
2022-08-02T17:00:23.850Z,1.52
2022-08-02T17:02:50.431Z,1.58
2022-08-02T17:05:17.166Z,1.50
2022-08-02T17:08:07.840Z,1.70
2022-08-02T17:10:31.348Z,1.45
2022-08-02T17:12:58.671Z,1.77
2022-08-02T17:16:08.149Z,1.52
2022-08-02T17:18:26.506Z,1.70
2022-08-02T17:20:53.695Z,1.50
2022-08-02T17:23:20.326Z,1.27
2022-08-02T17:25:50.267Z,1.50
2022-08-02T17:28:19.637Z,1.50
2022-08-02T17:30:46.230Z,1.30
2022-08-02T17:33:13.032Z,1.60
2022-08-02T17:35:52.416Z,1.58
2022-08-02T17:38:26.173Z,1.60
2022-08-02T17:40:54.666Z,1.60
2022-08-02T17:43:21.537Z,1.70
2022-08-02T17:45:59.750Z,1.70
2022-08-02T17:48:48.594Z,1.73
2022-08-02T17:51:15.374Z,1.92
2022-08-02T17:54:01.942Z,1.60
2022-08-02T17:56:28.727Z,1.70
2022-08-02T17:58:55.551Z,1.50
2022-08-02T18:01:23.602Z,1.63
2022-08-02T18:03:51.017Z,1.70
2022-08-02T18:06:21.436Z,1.70
2022-08-02T18:08:52.794Z,1.60
2022-08-02T18:11:52.359Z,1.75
2022-08-02T18:14:09.793Z,1.63
2022-08-02T18:16:40.388Z,1.90
2022-08-02T18:19:16.963Z,1.73
2022-08-02T18:21:44.215Z,1.55
2022-08-02T18:24:12.962Z,1.80
2022-08-02T18:26:41.146Z,1.83
2022-08-02T18:29:10.749Z,1.80
2022-08-02T18:31:40.109Z,1.83
2022-08-02T18:34:17.606Z,1.73
2022-08-02T18:36:47.277Z,1.73
2022-08-02T18:39:14.971Z,1.85
2022-08-02T18:41:44.211Z,1.70
2022-08-02T18:44:10.988Z,1.75
2022-08-02T18:46:42.412Z,1.70
2022-08-02T18:49:14.815Z,1.60
2022-08-02T18:51:42.158Z,1.83
2022-08-02T18:54:08.726Z,1.60
2022-08-02T18:56:35.328Z,2.00
2022-08-02T18:59:05.931Z,1.98
2022-08-02T19:01:35.572Z,2.30
2022-08-02T19:04:09.256Z,2.22
2022-08-02T19:06:35.995Z,2.47
2022-08-02T19:09:12.802Z,2.63
2022-08-02T19:11:48.347Z,2.20
2022-08-02T19:14:30.944Z,2.58
2022-08-02T19:16:59.682Z,2.40
2022-08-02T19:19:28.906Z,2.50
2022-08-02T19:22:16.703Z,2.63
2022-08-02T19:24:44.193Z,2.25
2022-08-02T19:27:14.645Z,2.42
2022-08-02T19:29:50.790Z,2.17
2022-08-02T19:32:41.560Z,2.78
2022-08-02T19:37:55.980Z,3.83
2022-08-02T19:40:27.467Z,3.50
2022-08-02T19:44:25.303Z,2.85
2022-08-02T19:45:49.885Z,3.45
2022-08-02T19:48:23.833Z,2.63
2022-08-02T19:50:56.501Z,2.88
2022-08-02T19:53:29.150Z,2.80
2022-08-02T19:56:13.114Z,2.53
2022-08-02T20:01:40.260Z,2.60
2022-08-02T20:04:13.693Z,3.28
2022-08-02T20:06:45.130Z,2.88
2022-08-02T20:09:17.031Z,3.17
2022-08-02T20:11:54.470Z,3.25
2022-08-02T20:14:26.709Z,3.40
2022-08-02T20:16:54.903Z,3.13
2022-08-02T20:19:21.773Z,2.80
2022-08-02T20:21:55.491Z,3.22
2022-08-02T20:24:26.462Z,2.88
2022-08-02T20:26:53.697Z,2.90
2022-08-02T20:29:45.114Z,3.58
2022-08-02T20:32:07.835Z,3.47
2022-08-02T20:34:36.210Z,3.30
2022-08-02T20:38:00.258Z,2.97
2022-08-02T20:39:50.922Z,3.20
2022-08-02T20:42:23.496Z,3.00
2022-08-02T20:44:53.910Z,3.28
2022-08-02T20:47:39.384Z,3.10
2022-08-02T20:50:30.510Z,3.22
2022-08-02T20:53:00.241Z,2.67
2022-08-02T20:55:30.857Z,3.00
2022-08-02T20:58:02.960Z,2.97
2022-08-02T21:00:30.232Z,3.05
2022-08-02T21:02:57.601Z,2.60
2022-08-02T21:05:26.920Z,3.03
2022-08-02T21:08:15.866Z,3.00
2022-08-02T21:10:50.212Z,2.50
2022-08-02T21:13:18.725Z,2.53
2022-08-02T21:15:49.978Z,2.70
2022-08-02T21:18:20.996Z,2.40
2022-08-02T21:20:52.714Z,2.65
2022-08-02T21:23:20.015Z,2.78
2022-08-02T21:25:56.727Z,2.40
2022-08-02T21:28:24.796Z,2.20
2022-08-02T21:31:10.542Z,2.80
2022-08-02T21:33:56.963Z,2.42
2022-08-02T21:36:31.907Z,2.70
2022-08-02T21:39:05.627Z,2.38
2022-08-02T21:41:39.852Z,2.85
2022-08-02T21:44:19.571Z,2.92
2022-08-02T21:46:49.464Z,2.63
2022-08-02T21:49:18.217Z,2.40
2022-08-02T21:51:49.166Z,2.75
2022-08-02T21:54:19.850Z,2.60
2022-08-02T21:56:52.728Z,2.25
2022-08-02T21:59:26.111Z,2.63
2022-08-02T22:01:57.061Z,2.85
2022-08-02T22:04:24.501Z,2.80
2022-08-02T22:06:51.150Z,2.90
2022-08-02T22:09:44.452Z,2.90
2022-08-02T22:12:12.539Z,2.60
2022-08-02T22:14:44.340Z,2.65
2022-08-02T22:17:16.470Z,2.60
2022-08-02T22:22:29.915Z,2.65
2022-08-02T22:24:57.229Z,2.88
2022-08-02T22:28:34.844Z,2.63
2022-08-02T22:30:11.419Z,2.50
2022-08-02T22:32:56.745Z,3.00
2022-08-02T22:35:23.352Z,2.58
2022-08-02T22:38:16.081Z,2.20
2022-08-02T22:40:36.591Z,2.47
2022-08-02T22:43:03.177Z,2.53
2022-08-02T22:45:29.919Z,2.47
2022-08-02T22:48:03.477Z,2.70
2022-08-02T22:50:30.144Z,2.80
2022-08-02T22:52:57.271Z,2.63
2022-08-02T22:55:24.371Z,2.83
2022-08-02T22:57:59.171Z,3.03
2022-08-02T22:58:52.376Z,3.70
2022-08-02T22:59:04.573Z,2.63
2022-08-02T22:59:06.196Z,2.75
2022-08-02T23:00:25.921Z,2.72
2022-08-02T23:02:52.830Z,2.88
2022-08-02T23:05:20.696Z,3.15
2022-08-02T23:07:47.330Z,2.67
2022-08-02T23:10:14.247Z,2.65
2022-08-02T23:12:40.930Z,2.58
2022-08-02T23:15:08.224Z,2.50
2022-08-02T23:17:53.454Z,2.40
2022-08-02T23:20:20.391Z,2.45
2022-08-02T23:22:47.010Z,2.50
2022-08-02T23:25:14.614Z,2.20
2022-08-02T23:27:50.345Z,2.50
2022-08-02T23:30:17.738Z,2.65
2022-08-02T23:32:44.360Z,2.63
2022-08-02T23:35:16.894Z,2.30
2022-08-02T23:37:59.522Z,2.83
2022-08-02T23:40:31.426Z,2.40
2022-08-02T23:43:12.429Z,2.50
2022-08-02T23:45:42.922Z,2.50
2022-08-02T23:48:09.492Z,2.22
2022-08-02T23:50:36.121Z,2.30
2022-08-02T23:53:02.702Z,2.47
2022-08-02T23:55:29.323Z,2.60
2022-08-02T23:57:55.905Z,2.60
